createdAt,value
2018-08-18T00:00:36.558Z,8.80
2018-08-18T00:01:36.596Z,8.60
2018-08-18T00:02:36.632Z,9.10
2018-08-18T00:03:36.668Z,9.40
2018-08-18T00:04:36.704Z,8.80
2018-08-18T00:05:36.741Z,9.30
2018-08-18T00:06:36.780Z,9.30
2018-08-18T00:07:36.814Z,8.80
2018-08-18T00:08:36.850Z,9.50
2018-08-18T00:09:36.886Z,8.90
2018-08-18T00:10:36.923Z,8.80
2018-08-18T00:11:36.959Z,9.80
2018-08-18T00:12:36.996Z,9.20
2018-08-18T00:13:37.032Z,8.50
2018-08-18T00:14:37.069Z,9.70
2018-08-18T00:15:37.103Z,9.80
2018-08-18T00:16:37.141Z,10.30
2018-08-18T00:17:37.178Z,9.10
2018-08-18T00:18:37.213Z,9.40
2018-08-18T00:19:37.252Z,8.60
2018-08-18T00:20:37.286Z,9.50
2018-08-18T00:21:37.322Z,9.50
2018-08-18T00:22:37.360Z,10.20
2018-08-18T00:23:37.396Z,9.90
2018-08-18T00:24:37.430Z,9.40
2018-08-18T00:25:37.467Z,10.10
2018-08-18T00:26:37.508Z,9.90
2018-08-18T00:27:37.538Z,9.90
2018-08-18T00:28:37.574Z,10.20
2018-08-18T00:29:37.612Z,10.00
2018-08-18T00:30:37.648Z,9.70
2018-08-18T00:31:37.683Z,9.70
2018-08-18T00:32:37.927Z,10.40
2018-08-18T00:33:37.756Z,10.10
2018-08-18T00:34:37.793Z,10.00
2018-08-18T00:35:37.827Z,9.80
2018-08-18T00:36:37.865Z,10.40
2018-08-18T00:37:37.900Z,9.80
2018-08-18T00:38:37.956Z,10.00
2018-08-18T00:39:38.173Z,9.90
2018-08-18T00:41:38.574Z,10.90
2018-08-18T00:42:38.103Z,10.40
2018-08-18T00:44:38.375Z,11.00
2018-08-18T00:49:38.350Z,10.10
2018-08-18T00:50:38.391Z,10.60
2018-08-18T00:51:38.403Z,10.40
2018-08-18T00:52:38.641Z,9.80
2018-08-18T00:53:38.474Z,10.10
2018-08-18T00:54:38.742Z,10.50
2018-08-18T00:55:38.567Z,9.70
2018-08-18T00:58:38.653Z,11.10
2018-08-18T00:59:38.690Z,11.00
2018-08-18T01:00:38.724Z,9.80
2018-08-18T01:01:38.764Z,10.80
2018-08-18T01:02:38.796Z,11.00
2018-08-18T01:03:38.830Z,11.20
2018-08-18T01:04:38.868Z,10.50
2018-08-18T01:05:38.904Z,10.30
2018-08-18T01:06:38.939Z,11.50
2018-08-18T01:07:38.977Z,10.80
2018-08-18T01:08:39.009Z,11.30
2018-08-18T01:09:39.047Z,11.70
2018-08-18T01:10:39.082Z,10.80
2018-08-18T01:11:39.421Z,11.30
2018-08-18T01:12:39.289Z,11.20
2018-08-18T01:13:39.211Z,10.80
2018-08-18T01:14:39.276Z,10.30
2018-08-18T01:15:39.331Z,11.20
2018-08-18T01:16:39.297Z,10.70
2018-08-18T01:17:39.333Z,11.10
2018-08-18T01:18:39.375Z,10.60
2018-08-18T01:19:39.403Z,10.30
2018-08-18T01:20:39.440Z,10.40
2018-08-18T01:21:39.477Z,11.40
2018-08-18T01:22:39.512Z,12.10
2018-08-18T01:23:39.550Z,11.30
2018-08-18T01:24:39.583Z,12.10
2018-08-18T01:25:39.619Z,11.70
2018-08-18T01:26:39.654Z,11.20
2018-08-18T01:27:39.690Z,10.70
2018-08-18T01:28:39.726Z,10.40
2018-08-18T01:29:39.762Z,11.60
2018-08-18T01:30:39.799Z,11.10
2018-08-18T01:31:39.833Z,11.20
2018-08-18T01:32:39.868Z,10.40
2018-08-18T01:33:39.905Z,10.80
2018-08-18T01:34:39.941Z,10.90
2018-08-18T01:35:39.975Z,10.50
2018-08-18T01:36:40.013Z,11.10
2018-08-18T01:37:40.047Z,10.80
2018-08-18T01:38:40.084Z,11.40
2018-08-18T01:39:40.119Z,11.00
2018-08-18T01:40:40.156Z,10.80
2018-08-18T01:41:40.193Z,11.80
2018-08-18T01:42:40.226Z,12.50
2018-08-18T01:43:40.284Z,11.30
2018-08-18T01:44:40.297Z,11.50
2018-08-18T01:45:40.334Z,10.20
2018-08-18T01:46:40.370Z,10.50
2018-08-18T01:47:40.409Z,11.00
2018-08-18T01:48:40.441Z,10.60
2018-08-18T01:49:40.476Z,11.10
2018-08-18T01:50:40.512Z,11.40
2018-08-18T01:51:40.547Z,11.50
2018-08-18T01:52:40.582Z,11.20
2018-08-18T01:53:40.618Z,11.30
2018-08-18T01:54:40.655Z,11.30
2018-08-18T01:55:40.690Z,11.00
2018-08-18T01:56:40.726Z,10.30
2018-08-18T01:57:40.761Z,11.50
2018-08-18T01:58:40.797Z,11.50
2018-08-18T01:59:40.833Z,11.90
2018-08-18T02:00:40.868Z,10.80
2018-08-18T02:01:40.903Z,10.80
2018-08-18T02:02:40.942Z,10.70
2018-08-18T02:03:40.973Z,10.90
2018-08-18T02:04:41.011Z,10.50
2018-08-18T02:05:41.046Z,10.50
2018-08-18T02:06:41.082Z,10.50
2018-08-18T02:07:41.116Z,10.60
2018-08-18T02:08:41.153Z,10.20
2018-08-18T02:09:41.189Z,9.50
2018-08-18T02:10:41.224Z,9.70
2018-08-18T02:11:41.257Z,10.20
2018-08-18T02:12:41.294Z,9.10
2018-08-18T02:13:41.330Z,10.30
2018-08-18T02:14:41.366Z,9.80
2018-08-18T02:15:41.400Z,9.30
2018-08-18T02:16:41.437Z,9.40
2018-08-18T02:17:41.471Z,9.10
2018-08-18T02:18:41.512Z,9.90
2018-08-18T02:19:41.543Z,10.60
2018-08-18T02:20:41.583Z,10.30
2018-08-18T02:21:41.615Z,9.70
2018-08-18T02:22:41.651Z,10.80
2018-08-18T02:23:41.686Z,10.40
2018-08-18T02:24:41.725Z,9.60
2018-08-18T02:25:41.756Z,9.40
2018-08-18T02:26:41.792Z,10.30
2018-08-18T02:27:41.829Z,9.10
2018-08-18T02:28:41.863Z,9.10
2018-08-18T02:29:41.898Z,9.70
2018-08-18T02:30:41.934Z,9.40
2018-08-18T02:31:41.969Z,9.00
2018-08-18T02:32:42.007Z,10.80
2018-08-18T02:33:42.040Z,9.90
2018-08-18T02:34:42.076Z,8.80
2018-08-18T02:35:42.112Z,11.50
2018-08-18T02:36:42.147Z,9.60
2018-08-18T02:37:42.182Z,9.20
2018-08-18T02:38:42.220Z,10.10
2018-08-18T02:39:42.253Z,10.70
2018-08-18T02:40:42.289Z,10.60
2018-08-18T02:41:42.324Z,10.70
2018-08-18T02:42:42.360Z,10.10
2018-08-18T02:43:42.394Z,11.10
2018-08-18T02:44:42.429Z,11.70
2018-08-18T02:45:42.465Z,12.00
2018-08-18T02:46:42.502Z,12.00
2018-08-18T02:47:42.536Z,11.10
2018-08-18T02:48:42.571Z,11.80
2018-08-18T02:49:42.609Z,10.50
2018-08-18T02:50:42.646Z,11.00
2018-08-18T02:51:42.678Z,11.40
2018-08-18T02:52:42.712Z,11.50
2018-08-18T02:53:42.749Z,11.90
2018-08-18T02:54:42.784Z,11.70
2018-08-18T02:55:42.820Z,10.40
2018-08-18T02:56:42.855Z,10.80
2018-08-18T02:57:51.808Z,10.90
2018-08-18T02:58:42.926Z,10.80
2018-08-18T02:59:42.964Z,11.10
2018-08-18T03:00:42.997Z,10.60
2018-08-18T03:01:43.035Z,10.90
2018-08-18T03:02:43.072Z,11.10
2018-08-18T03:03:43.104Z,10.60
2018-08-18T03:04:43.139Z,10.70
2018-08-18T03:05:43.175Z,10.20
2018-08-18T03:06:43.210Z,10.90
2018-08-18T03:07:43.342Z,10.90
2018-08-18T03:08:43.280Z,11.50
2018-08-18T03:09:43.317Z,11.00
2018-08-18T03:10:43.352Z,11.30
2018-08-18T03:11:43.388Z,11.10
2018-08-18T03:12:43.421Z,11.20
2018-08-18T03:13:43.458Z,10.10
2018-08-18T03:14:43.493Z,10.50
2018-08-18T03:15:43.528Z,10.40
2018-08-18T03:16:43.563Z,10.70
2018-08-18T03:17:43.599Z,10.00
2018-08-18T03:18:43.637Z,11.90
2018-08-18T03:19:43.669Z,11.10
2018-08-18T03:20:43.707Z,11.00
2018-08-18T03:21:43.739Z,11.10
2018-08-18T03:22:43.776Z,11.10
2018-08-18T03:23:43.820Z,11.20
2018-08-18T03:24:43.844Z,10.20
2018-08-18T03:25:43.883Z,10.50
2018-08-18T03:26:43.916Z,10.60
2018-08-18T03:27:43.949Z,10.60
2018-08-18T03:28:43.985Z,10.60
2018-08-18T03:29:44.021Z,10.80
2018-08-18T03:30:44.056Z,10.30
2018-08-18T03:31:44.091Z,10.50
2018-08-18T03:32:44.126Z,10.30
2018-08-18T03:33:44.160Z,9.80
2018-08-18T03:34:44.197Z,10.40
2018-08-18T03:35:44.230Z,10.50
2018-08-18T03:36:44.266Z,9.70
2018-08-18T03:37:44.301Z,10.40
2018-08-18T03:38:44.338Z,9.80
2018-08-18T03:39:44.370Z,10.00
2018-08-18T03:40:44.407Z,10.00
2018-08-18T03:41:44.445Z,10.50
2018-08-18T03:42:44.480Z,10.60
2018-08-18T03:43:44.510Z,9.40
2018-08-18T03:44:44.546Z,9.80
2018-08-18T03:45:44.582Z,9.50
2018-08-18T03:46:44.617Z,10.60
2018-08-18T03:47:44.655Z,9.60
2018-08-18T03:48:44.687Z,10.10
2018-08-18T03:49:44.723Z,10.60
2018-08-18T03:50:44.756Z,9.80
2018-08-18T03:51:44.791Z,10.30
2018-08-18T03:52:44.830Z,11.20
2018-08-18T03:53:44.862Z,10.20
2018-08-18T03:54:44.897Z,10.90
2018-08-18T03:55:44.933Z,10.70
2018-08-18T03:56:44.970Z,11.40
2018-08-18T03:57:45.002Z,10.90
2018-08-18T03:58:45.039Z,10.20
2018-08-18T03:59:45.073Z,10.30
2018-08-18T04:00:45.106Z,10.40
2018-08-18T04:01:45.143Z,10.10
2018-08-18T04:02:45.177Z,10.30
2018-08-18T04:03:45.210Z,10.60
2018-08-18T04:04:45.247Z,10.30
2018-08-18T04:05:45.281Z,11.50
2018-08-18T04:06:45.317Z,10.40
2018-08-18T04:07:45.351Z,9.50
2018-08-18T04:08:45.387Z,9.80
2018-08-18T04:09:45.422Z,10.40
2018-08-18T04:10:45.458Z,10.70
2018-08-18T04:11:45.492Z,11.10
2018-08-18T04:12:45.526Z,11.60
2018-08-18T04:13:45.562Z,11.00
2018-08-18T04:14:45.597Z,11.50
2018-08-18T04:15:45.635Z,10.40
2018-08-18T04:16:45.670Z,10.60
2018-08-18T04:17:45.703Z,10.30
2018-08-18T04:18:45.795Z,9.80
2018-08-18T04:19:45.776Z,10.00
2018-08-18T04:20:45.808Z,9.50
2018-08-18T04:21:45.844Z,9.90
2018-08-18T04:22:45.878Z,10.90
2018-08-18T04:23:45.912Z,10.30
2018-08-18T04:24:45.948Z,10.20
2018-08-18T04:25:45.984Z,11.00
2018-08-18T04:26:46.019Z,10.60
2018-08-18T04:27:46.053Z,10.50
2018-08-18T04:28:46.089Z,10.30
2018-08-18T04:29:46.124Z,10.30
2018-08-18T04:30:46.159Z,10.10
2018-08-18T04:31:46.193Z,9.70
2018-08-18T04:32:46.229Z,10.40
2018-08-18T04:33:46.264Z,9.60
2018-08-18T04:34:46.301Z,9.90
2018-08-18T04:35:46.334Z,9.80
2018-08-18T04:36:46.369Z,10.40
2018-08-18T04:37:46.405Z,10.20
2018-08-18T04:38:46.440Z,8.90
2018-08-18T04:39:46.475Z,9.70
2018-08-18T04:40:46.511Z,9.90
2018-08-18T04:41:46.544Z,9.80
2018-08-18T04:42:46.582Z,9.70
2018-08-18T04:43:46.621Z,10.90
2018-08-18T04:44:46.652Z,10.30
2018-08-18T04:45:46.687Z,10.70
2018-08-18T04:46:46.723Z,10.80
2018-08-18T04:47:46.756Z,10.30
2018-08-18T04:48:46.805Z,9.90
2018-08-18T04:49:46.827Z,10.60
2018-08-18T04:50:46.863Z,9.90
2018-08-18T04:51:46.897Z,9.60
2018-08-18T04:52:46.933Z,10.50
2018-08-18T04:53:46.968Z,9.90
2018-08-18T04:54:47.005Z,10.60
2018-08-18T04:55:47.039Z,10.70
2018-08-18T04:56:47.214Z,10.30
2018-08-18T04:57:47.109Z,10.60
2018-08-18T04:58:47.145Z,9.90
2018-08-18T04:59:47.180Z,11.00
2018-08-18T05:00:47.215Z,10.40
2018-08-18T05:01:47.251Z,9.90
2018-08-18T05:02:47.287Z,10.50
2018-08-18T05:03:47.322Z,9.80
2018-08-18T05:04:47.356Z,10.00
2018-08-18T05:05:47.393Z,10.90
2018-08-18T05:06:47.427Z,10.80
2018-08-18T05:07:47.463Z,11.10
2018-08-18T05:08:47.549Z,10.70
2018-08-18T05:09:47.534Z,10.80
2018-08-18T05:10:47.569Z,10.60
2018-08-18T05:11:47.641Z,9.70
2018-08-18T05:12:47.639Z,9.90
2018-08-18T05:13:47.675Z,9.80
2018-08-18T05:14:47.711Z,9.90
2018-08-18T05:15:47.746Z,10.30
2018-08-18T05:16:47.782Z,10.10
2018-08-18T05:17:47.820Z,10.00
2018-08-18T05:18:47.895Z,9.80
2018-08-18T05:19:47.888Z,10.20
2018-08-18T05:20:47.924Z,10.10
2018-08-18T05:21:47.961Z,10.60
2018-08-18T05:22:48.001Z,10.10
2018-08-18T05:23:48.031Z,9.80
2018-08-18T05:24:48.067Z,10.10
2018-08-18T05:25:48.103Z,9.90
2018-08-18T05:26:48.140Z,10.60
2018-08-18T05:27:48.173Z,10.40
2018-08-18T05:28:48.208Z,10.40
2018-08-18T05:29:48.244Z,9.90
2018-08-18T05:30:48.279Z,9.90
2018-08-18T05:31:48.315Z,11.00
2018-08-18T05:32:48.351Z,9.40
2018-08-18T05:33:48.387Z,10.50
2018-08-18T05:34:48.422Z,10.40
2018-08-18T05:35:48.458Z,10.10
2018-08-18T05:36:48.493Z,10.70
2018-08-18T05:37:48.530Z,10.60
2018-08-18T05:38:48.565Z,9.80
2018-08-18T05:39:48.600Z,10.50
2018-08-18T05:40:48.635Z,9.70
2018-08-18T05:41:48.672Z,9.90
2018-08-18T05:42:48.709Z,10.50
2018-08-18T05:43:48.744Z,10.50
2018-08-18T05:44:48.779Z,10.20
2018-08-18T05:45:48.816Z,9.90
2018-08-18T05:46:48.851Z,10.80
2018-08-18T05:47:48.888Z,10.20
2018-08-18T05:48:48.926Z,9.60
2018-08-18T05:49:48.959Z,10.10
2018-08-18T05:50:48.995Z,9.70
2018-08-18T05:51:49.030Z,10.10
2018-08-18T05:52:49.065Z,10.40
2018-08-18T05:53:49.108Z,10.70
2018-08-18T05:54:49.137Z,10.60
2018-08-18T05:55:49.172Z,10.70
2018-08-18T05:56:49.209Z,10.30
2018-08-18T05:57:49.245Z,10.70
2018-08-18T05:58:49.282Z,10.50
2018-08-18T05:59:49.349Z,10.50
2018-08-18T06:00:49.353Z,10.10
2018-08-18T06:01:49.389Z,11.50
2018-08-18T06:02:49.426Z,11.30
2018-08-18T06:03:49.461Z,10.50
2018-08-18T06:04:49.498Z,10.60
2018-08-18T06:05:49.704Z,10.50
2018-08-18T06:06:49.573Z,10.40
2018-08-18T06:07:49.610Z,10.20
2018-08-18T06:08:49.642Z,9.70
2018-08-18T06:09:49.677Z,10.40
2018-08-18T06:10:49.714Z,10.20
2018-08-18T06:11:49.749Z,10.80
2018-08-18T06:12:49.785Z,11.40
2018-08-18T06:13:49.822Z,10.50
2018-08-18T06:14:49.858Z,11.50
2018-08-18T06:15:49.894Z,10.50
2018-08-18T06:16:49.931Z,10.80
2018-08-18T06:17:49.967Z,11.20
2018-08-18T06:18:50.004Z,11.00
2018-08-18T06:19:50.042Z,10.70
2018-08-18T06:20:50.076Z,10.40
2018-08-18T06:21:50.112Z,12.20
2018-08-18T06:22:50.152Z,11.80
2018-08-18T06:23:50.184Z,11.60
2018-08-18T06:24:50.220Z,10.80
2018-08-18T06:25:50.258Z,11.90
2018-08-18T06:26:50.294Z,10.80
2018-08-18T06:27:50.333Z,10.90
2018-08-18T06:28:50.367Z,11.60
2018-08-18T06:29:50.404Z,11.50
2018-08-18T06:30:50.442Z,11.50
2018-08-18T06:31:50.476Z,11.30
2018-08-18T06:32:50.520Z,11.50
2018-08-18T06:33:50.550Z,11.70
2018-08-18T06:34:50.691Z,11.20
2018-08-18T06:35:50.624Z,11.50
2018-08-18T06:36:50.661Z,11.10
2018-08-18T06:37:50.698Z,11.90
2018-08-18T06:38:50.736Z,11.50
2018-08-18T06:39:50.772Z,12.50
2018-08-18T06:40:50.809Z,12.20
2018-08-18T06:41:50.851Z,12.00
2018-08-18T06:42:50.884Z,12.00
2018-08-18T06:43:50.921Z,12.30
2018-08-18T06:44:50.958Z,11.80
2018-08-18T06:45:50.995Z,12.20
2018-08-18T06:46:51.033Z,12.80
2018-08-18T06:47:51.070Z,12.20
2018-08-18T06:48:51.107Z,15.90
2018-08-18T06:49:51.145Z,14.20
2018-08-18T06:50:51.184Z,14.60
2018-08-18T06:51:51.220Z,14.00
2018-08-18T06:52:51.262Z,13.40
2018-08-18T06:53:51.295Z,13.80
2018-08-18T06:54:51.447Z,15.00
2018-08-18T06:55:51.371Z,15.60
2018-08-18T06:56:51.445Z,16.00
2018-08-18T06:57:51.445Z,16.00
2018-08-18T06:58:51.484Z,15.90
2018-08-18T06:59:51.522Z,17.60
2018-08-18T07:00:51.560Z,16.50
2018-08-18T07:01:51.597Z,15.00
2018-08-18T07:02:51.636Z,15.50
2018-08-18T07:03:51.673Z,16.80
2018-08-18T07:04:51.710Z,16.60
2018-08-18T07:05:51.767Z,17.30
2018-08-18T07:06:51.786Z,16.10
2018-08-18T07:07:51.823Z,16.40
2018-08-18T07:08:51.861Z,15.80
2018-08-18T07:09:51.900Z,17.00
2018-08-18T07:10:51.938Z,16.40
2018-08-18T07:11:51.977Z,16.50
2018-08-18T07:12:52.012Z,16.30
2018-08-18T07:13:52.050Z,16.80
2018-08-18T07:14:52.087Z,16.20
2018-08-18T07:15:52.123Z,16.40
2018-08-18T07:16:52.162Z,16.10
2018-08-18T07:17:52.198Z,16.30
2018-08-18T07:18:52.237Z,17.20
2018-08-18T07:19:52.274Z,15.80
2018-08-18T07:20:52.310Z,15.60
2018-08-18T07:21:52.348Z,15.70
2018-08-18T07:22:52.386Z,15.90
2018-08-18T07:23:52.431Z,16.70
2018-08-18T07:24:52.461Z,16.10
2018-08-18T07:25:52.499Z,15.50
2018-08-18T07:26:52.536Z,15.90
2018-08-18T07:27:52.573Z,16.00
2018-08-18T07:28:52.752Z,17.10
2018-08-18T07:29:52.906Z,16.80
2018-08-18T07:30:52.714Z,16.70
2018-08-18T07:31:52.750Z,16.40
2018-08-18T07:32:52.763Z,15.00
2018-08-18T07:33:52.823Z,15.30
2018-08-18T07:35:53.099Z,14.90
2018-08-18T07:36:53.422Z,14.30
2018-08-18T07:37:54.369Z,16.10
2018-08-18T07:38:52.996Z,15.90
2018-08-18T07:39:53.028Z,15.50
2018-08-18T07:40:53.066Z,16.40
2018-08-18T07:41:53.105Z,16.30
2018-08-18T07:42:53.143Z,16.00
2018-08-18T07:43:53.180Z,16.20
2018-08-18T07:44:53.218Z,16.10
2018-08-18T07:45:53.258Z,15.60
2018-08-18T07:46:53.296Z,15.00
2018-08-18T07:47:53.359Z,15.30
2018-08-18T07:48:53.371Z,15.60
2018-08-18T07:49:53.412Z,15.20
2018-08-18T07:50:53.979Z,15.10
2018-08-18T07:51:53.506Z,16.70
2018-08-18T07:55:53.640Z,16.50
2018-08-18T07:56:53.679Z,15.70
2018-08-18T07:57:53.717Z,15.20
2018-08-18T07:58:53.757Z,16.10
2018-08-18T07:59:53.836Z,15.00
2018-08-18T08:00:53.833Z,15.80
2018-08-18T08:01:53.874Z,15.70
2018-08-18T08:02:53.911Z,15.40
2018-08-18T08:03:53.948Z,16.00
2018-08-18T08:04:53.991Z,15.40
2018-08-18T08:05:54.031Z,14.90
2018-08-18T08:06:54.066Z,15.10
2018-08-18T08:07:54.104Z,15.00
2018-08-18T08:08:54.144Z,14.20
2018-08-18T08:09:54.182Z,14.20
2018-08-18T08:10:54.222Z,14.10
2018-08-18T08:11:54.259Z,15.00
2018-08-18T08:12:54.305Z,15.20
2018-08-18T08:13:54.337Z,16.10
2018-08-18T08:14:54.376Z,16.40
2018-08-18T08:15:54.415Z,14.70
2018-08-18T08:16:54.453Z,15.50
2018-08-18T08:17:54.493Z,14.00
2018-08-18T08:18:54.532Z,15.60
2018-08-18T08:19:54.573Z,15.40
2018-08-18T08:20:54.609Z,14.80
2018-08-18T08:21:54.646Z,15.30
2018-08-18T08:22:54.687Z,15.10
2018-08-18T08:23:54.725Z,14.40
2018-08-18T08:24:54.764Z,15.70
2018-08-18T08:25:54.802Z,16.20
2018-08-18T08:26:54.842Z,17.40
2018-08-18T08:27:54.882Z,16.30
2018-08-18T08:28:54.920Z,14.80
2018-08-18T08:29:54.965Z,15.30
2018-08-18T08:30:55.000Z,15.00
2018-08-18T08:31:55.037Z,15.10
2018-08-18T08:32:55.075Z,14.40
2018-08-18T08:33:55.117Z,14.80
2018-08-18T08:34:55.155Z,14.10
2018-08-18T08:35:55.193Z,14.30
2018-08-18T08:36:55.445Z,15.70
2018-08-18T08:37:55.272Z,16.30
2018-08-18T08:38:55.312Z,15.60
2018-08-18T08:39:55.353Z,16.40
2018-08-18T08:40:55.389Z,16.60
2018-08-18T08:41:55.429Z,16.90
2018-08-18T08:42:55.514Z,16.90
2018-08-18T08:43:55.508Z,17.70
2018-08-18T08:44:55.547Z,16.90
2018-08-18T08:45:55.587Z,16.60
2018-08-18T08:46:55.624Z,15.80
2018-08-18T08:47:55.664Z,16.90
2018-08-18T08:48:55.764Z,16.80
2018-08-18T08:49:55.741Z,16.50
2018-08-18T08:50:55.780Z,16.60
2018-08-18T08:51:55.819Z,17.20
2018-08-18T08:52:55.858Z,15.60
2018-08-18T08:53:55.900Z,15.90
2018-08-18T08:54:55.936Z,15.50
2018-08-18T08:55:55.975Z,17.10
2018-08-18T08:56:56.014Z,14.70
2018-08-18T08:57:56.053Z,14.80
2018-08-18T08:58:56.177Z,16.00
2018-08-18T09:00:56.193Z,17.00
2018-08-18T09:01:56.211Z,16.10
2018-08-18T09:02:56.249Z,15.40
2018-08-18T09:03:56.289Z,16.60
2018-08-18T09:04:56.329Z,16.60
2018-08-18T09:05:56.368Z,16.20
2018-08-18T09:06:56.408Z,15.60
2018-08-18T09:07:56.446Z,15.60
2018-08-18T09:08:56.488Z,16.70
2018-08-18T09:09:56.526Z,17.20
2018-08-18T09:10:56.565Z,17.90
2018-08-18T09:11:56.604Z,18.00
2018-08-18T09:12:56.644Z,17.70
2018-08-18T09:13:56.683Z,15.00
2018-08-18T09:14:56.723Z,15.60
2018-08-18T09:15:56.764Z,15.80
2018-08-18T09:16:56.803Z,15.80
2018-08-18T09:17:56.843Z,16.20
2018-08-18T09:18:56.884Z,16.40
2018-08-18T09:19:56.923Z,16.20
2018-08-18T09:20:56.963Z,17.10
2018-08-18T09:21:57.002Z,16.80
2018-08-18T09:22:57.045Z,16.10
2018-08-18T09:23:57.084Z,15.80
2018-08-18T09:24:57.122Z,16.70
2018-08-18T09:25:57.228Z,17.70
2018-08-18T09:26:57.203Z,16.60
2018-08-18T09:27:57.244Z,16.90
2018-08-18T09:28:57.284Z,18.00
2018-08-18T09:29:57.322Z,18.50
2018-08-18T09:30:57.364Z,17.30
2018-08-18T09:31:57.404Z,15.70
2018-08-18T09:32:57.445Z,17.00
2018-08-18T09:33:57.485Z,17.00
2018-08-18T09:34:57.526Z,17.10
2018-08-18T09:35:57.566Z,16.20
2018-08-18T09:36:57.607Z,15.80
2018-08-18T09:37:57.647Z,16.40
2018-08-18T09:38:57.688Z,15.00
2018-08-18T09:39:57.727Z,16.10
2018-08-18T09:40:57.768Z,15.50
2018-08-18T09:41:57.808Z,16.40
2018-08-18T09:42:57.850Z,16.70
2018-08-18T09:43:57.887Z,16.90
2018-08-18T09:44:57.930Z,16.40
2018-08-18T09:45:57.971Z,16.30
2018-08-18T09:46:59.452Z,16.00
2018-08-18T09:47:58.052Z,17.40
2018-08-18T09:48:58.093Z,16.40
2018-08-18T09:49:58.134Z,15.70
2018-08-18T09:50:58.175Z,16.60
2018-08-18T09:51:58.216Z,17.10
2018-08-18T09:52:58.256Z,15.90
2018-08-18T09:53:58.347Z,16.40
2018-08-18T09:54:58.337Z,16.10
2018-08-18T09:55:59.187Z,16.10
2018-08-18T09:56:58.419Z,15.60
2018-08-18T09:57:58.465Z,15.10
2018-08-18T09:59:00.651Z,15.00
2018-08-18T09:59:58.542Z,15.50
2018-08-18T10:00:58.582Z,16.20
2018-08-18T10:01:58.628Z,16.70
2018-08-18T10:02:58.667Z,17.20
2018-08-18T10:03:58.709Z,18.60
2018-08-18T10:04:58.753Z,15.70
2018-08-18T10:05:58.791Z,16.70
2018-08-18T10:06:58.834Z,16.80
2018-08-18T10:07:58.875Z,15.70
2018-08-18T10:08:58.918Z,16.00
2018-08-18T10:09:58.984Z,16.10
2018-08-18T10:10:59.003Z,15.80
2018-08-18T10:11:59.044Z,16.90
2018-08-18T10:12:59.088Z,16.20
2018-08-18T10:13:59.154Z,17.50
2018-08-18T10:14:59.194Z,19.10
2018-08-18T10:15:59.516Z,18.80
2018-08-18T10:16:59.258Z,17.60
2018-08-18T10:17:59.301Z,20.00
2018-08-18T10:18:59.343Z,18.00
2018-08-18T10:19:59.382Z,19.10
2018-08-18T10:20:59.424Z,18.70
2018-08-18T10:21:59.466Z,18.80
2018-08-18T10:22:59.509Z,19.60
2018-08-18T10:23:59.552Z,19.70
2018-08-18T10:24:59.592Z,19.70
2018-08-18T10:25:59.635Z,18.90
2018-08-18T10:26:59.683Z,19.20
2018-08-18T10:27:59.719Z,19.90
2018-08-18T10:28:59.762Z,19.20
2018-08-18T10:29:59.804Z,19.80
2018-08-18T10:30:59.848Z,19.00
2018-08-18T10:31:59.889Z,18.40
2018-08-18T10:32:59.930Z,18.60
2018-08-18T10:33:59.972Z,19.50
2018-08-18T10:35:00.015Z,17.20
2018-08-18T10:36:00.056Z,17.70
2018-08-18T10:37:00.098Z,18.40
2018-08-18T10:38:00.141Z,18.30
2018-08-18T10:39:00.184Z,18.30
2018-08-18T10:40:00.233Z,17.10
2018-08-18T10:41:00.268Z,17.20
2018-08-18T10:43:00.757Z,16.90
2018-08-18T10:44:00.395Z,18.80
2018-08-18T10:45:00.438Z,19.10
2018-08-18T10:46:00.484Z,18.00
2018-08-18T10:47:00.524Z,16.70
2018-08-18T10:48:00.566Z,18.60
2018-08-18T10:49:00.611Z,17.40
2018-08-18T10:50:45.835Z,18.50
2018-08-18T10:51:43.378Z,17.70
2018-08-18T10:52:43.626Z,17.80
2018-08-18T10:53:43.767Z,17.20
2018-08-18T10:54:43.586Z,18.80
2018-08-18T10:55:43.428Z,17.60
2018-08-18T10:56:43.473Z,16.10
2018-08-18T10:57:43.515Z,17.30
2018-08-18T10:58:43.559Z,17.30
2018-08-18T10:59:43.605Z,17.60
2018-08-18T11:01:43.693Z,14.70
2018-08-18T11:02:43.739Z,15.50
2018-08-18T11:03:43.788Z,15.90
2018-08-18T11:04:43.833Z,16.10
2018-08-18T11:05:43.882Z,15.80
2018-08-18T11:06:43.926Z,14.10
2018-08-18T11:07:43.974Z,13.40
2018-08-18T11:08:44.021Z,14.10
2018-08-18T11:09:44.069Z,14.80
2018-08-18T11:10:44.118Z,12.60
2018-08-18T11:11:44.172Z,14.30
2018-08-18T11:12:44.216Z,14.60
2018-08-18T11:13:44.265Z,14.40
2018-08-18T11:14:44.315Z,13.00
2018-08-18T11:15:44.367Z,12.90
2018-08-18T11:16:44.417Z,11.70
2018-08-18T11:17:44.469Z,10.90
2018-08-18T11:18:44.518Z,10.80
2018-08-18T11:19:44.570Z,12.00
2018-08-18T11:20:44.620Z,11.90
2018-08-18T11:21:44.679Z,12.40
2018-08-18T11:22:44.723Z,11.60
2018-08-18T11:23:44.775Z,11.70
2018-08-18T11:24:44.828Z,11.00
2018-08-18T11:25:44.879Z,11.70
2018-08-18T11:26:44.930Z,11.50
2018-08-18T11:27:44.986Z,11.10
2018-08-18T11:28:45.211Z,11.00
2018-08-18T11:29:45.086Z,10.70
2018-08-18T11:30:45.139Z,10.70
2018-08-18T11:31:45.193Z,10.40
2018-08-18T11:32:45.244Z,10.30
2018-08-18T11:33:45.294Z,11.10
2018-08-18T11:34:45.347Z,10.20
2018-08-18T11:35:45.399Z,11.30
2018-08-18T11:36:45.453Z,12.30
2018-08-18T11:37:45.551Z,10.90
2018-08-18T11:38:45.556Z,10.50
2018-08-18T11:39:45.609Z,10.80
2018-08-18T11:40:45.890Z,11.00
2018-08-18T11:41:45.713Z,11.40
2018-08-18T11:42:45.766Z,12.10
2018-08-18T11:43:45.820Z,12.20
2018-08-18T11:44:45.874Z,12.70
2018-08-18T11:45:45.927Z,11.50
2018-08-18T11:46:45.979Z,10.60
2018-08-18T11:47:46.030Z,10.30
2018-08-18T11:48:46.104Z,11.10
2018-08-18T11:49:46.135Z,11.40
2018-08-18T11:50:46.212Z,9.80
2018-08-18T11:51:46.241Z,10.80
2018-08-18T11:52:46.294Z,11.30
2018-08-18T11:53:46.369Z,11.20
2018-08-18T11:54:46.399Z,9.90
2018-08-18T11:56:46.504Z,11.50
2018-08-18T11:57:46.560Z,9.10
2018-08-18T11:58:46.610Z,8.30
2018-08-18T11:59:46.663Z,9.50
2018-08-18T12:00:46.716Z,9.50
2018-08-18T12:01:46.819Z,10.20
2018-08-18T12:02:47.025Z,11.50
2018-08-18T12:03:46.874Z,9.70
2018-08-18T12:04:46.927Z,11.20
2018-08-18T12:05:46.980Z,10.10
2018-08-18T12:06:47.032Z,10.40
2018-08-18T12:07:47.087Z,9.30
2018-08-18T12:08:47.138Z,9.80
2018-08-18T12:09:47.189Z,8.70
2018-08-18T12:10:47.457Z,8.80
2018-08-18T12:11:47.296Z,9.20
2018-08-18T12:12:47.346Z,9.00
2018-08-18T12:13:47.396Z,8.30
2018-08-18T12:14:47.448Z,8.10
2018-08-18T12:15:47.506Z,8.00
2018-08-18T12:16:47.554Z,9.90
2018-08-18T12:17:47.602Z,10.70
2018-08-18T12:18:47.654Z,11.00
2018-08-18T12:19:47.707Z,11.10
2018-08-18T12:20:47.757Z,10.50
2018-08-18T12:21:47.813Z,9.70
2018-08-18T12:22:47.860Z,9.90
2018-08-18T12:23:47.958Z,10.40
2018-08-18T12:24:47.963Z,10.60
2018-08-18T12:25:48.015Z,9.90
2018-08-18T12:26:48.065Z,10.00
2018-08-18T12:27:48.117Z,10.30
2018-08-18T12:28:48.169Z,8.90
2018-08-18T12:29:48.312Z,10.60
2018-08-18T12:30:48.271Z,9.50
2018-08-18T12:31:48.322Z,9.90
2018-08-18T12:32:48.376Z,11.10
2018-08-18T12:33:48.425Z,7.70
2018-08-18T12:34:48.491Z,9.70
2018-08-18T12:35:48.530Z,9.40
2018-08-18T12:36:48.726Z,8.70
2018-08-18T12:37:48.632Z,9.30
2018-08-18T12:38:48.683Z,9.80
2018-08-18T12:39:48.733Z,9.50
2018-08-18T12:40:48.788Z,8.80
2018-08-18T12:41:48.834Z,10.60
2018-08-18T12:42:48.886Z,10.30
2018-08-18T12:43:48.938Z,9.90
2018-08-18T12:44:48.988Z,8.80
2018-08-18T12:45:49.037Z,10.80
2018-08-18T12:46:49.087Z,10.50
2018-08-18T12:47:49.137Z,10.20
2018-08-18T12:48:49.189Z,11.40
2018-08-18T12:49:49.273Z,10.80
2018-08-18T12:50:49.289Z,9.70
2018-08-18T12:51:49.339Z,9.20
2018-08-18T12:52:49.390Z,10.80
2018-08-18T12:53:49.440Z,10.50
2018-08-18T12:54:49.489Z,10.80
2018-08-18T12:55:49.538Z,10.50
2018-08-18T12:56:49.590Z,8.40
2018-08-18T12:57:49.641Z,9.20
2018-08-18T12:58:49.689Z,8.50
2018-08-18T12:59:49.740Z,9.40
2018-08-18T13:00:49.790Z,9.20
2018-08-18T13:01:49.839Z,9.10
2018-08-18T13:02:49.891Z,9.60
2018-08-18T13:03:49.941Z,8.90
2018-08-18T13:04:49.993Z,7.40
2018-08-18T13:05:50.042Z,7.50
2018-08-18T13:06:50.098Z,7.30
2018-08-18T13:07:50.146Z,6.50
2018-08-18T13:08:50.198Z,6.40
2018-08-18T13:09:50.247Z,7.20
2018-08-18T13:10:50.301Z,7.60
2018-08-18T13:11:50.353Z,6.70
2018-08-18T13:12:50.403Z,7.30
2018-08-18T13:13:50.454Z,7.80
2018-08-18T13:14:50.507Z,7.60